EBBR Airport Information

Runway Information
Runway 01 Length 9800 ft width 164 ft
Elevation 183 ft Threshold 151 ft Heading 14
Runway 19 Length 9800 ft Width 164 ft
Elevation 113 ft Threshold 571 ft Heading 194
Runway 07L Length 11936 ft width 148 ft
Elevation 129 ft Threshold 846 ft Heading 65
Runway 25R Length 11936 ft Width 148 ft
Elevation 110 ft Threshold 984 ft Heading 245
Runway 07R Length 10535 ft width 148 ft
Elevation 175 ft Threshold 400 ft Heading 70
Runway 25L Length 10535 ft Width 148 ft
Elevation 159 ft Threshold 0 ft Heading 250
Airport Frequencies
Type APP Name APP Frequency 118.25 MHZ
Type ATIS Name ATIS DEP Frequency 121.75 MHZ
Type ATIS Name ATIS ARR Frequency 132.475 MHZ
Type CLD Name CLNC DEL Frequency 121.95 MHZ
Type DEP Name DEP Frequency 126.625 MHZ
Type GND Name GND North Frequency 118.05 MHZ
Type GND Name GND South Frequency 121.875 MHZ
Type OPS Name MELSBROEK Frequency 140.575 MHZ
Type TWR Name TWR (RWY 0 Frequency 118.6 MHZ
Type TWR Name TWR (RWY 0 Frequency 120.775 MHZ
Type UNIC Name ABELAG UNI Frequency 130.55 MHZ
Airport Navaids
Type VOR-DME Name Affligem Frequency 114900 KHZ
Type VOR-DME Name Brussels Frequency 114600 KHZ
Type VOR-DME Name Bruno Frequency 110600 KHZ
Type NDB Name Brussels Frequency 293 KHZ
Type NDB Name Brussels Frequency 314 KHZ
Airport Weather Information & NOTAM
ADDS - METARS form results

(0603 UTC 21 July 2018)
 
METAR text: EBBR 210550Z 32005KT CAVOK 19/15 Q1012 NOSIG
Conditions at: EBBR (BRUSSELS NATIONA, BE) observed 0550 UTC 21 July 2018
Temperature: 19.0°C (66°F)
Dewpoint: 15.0°C (59°F) [RH = 78%]
Pressure (altimeter): 29.88 inches Hg (1012.0 mb)
Winds: from the NW (320 degrees) at 6 MPH (5 knots; 2.6 m/s)
Visibility: 6 or more miles (10+ km)
Ceiling: ceiling and visibility are OK
Clouds: unknown
Weather: no significant weather observed at this time

METAR text: EBBR 210520Z 30004KT CAVOK 18/15 Q1012 NOSIG
Conditions at: EBBR (BRUSSELS NATIONA, BE) observed 0520 UTC 21 July 2018
Temperature: 18.0°C (64°F)
Dewpoint: 15.0°C (59°F) [RH = 83%]
Pressure (altimeter): 29.88 inches Hg (1012.0 mb)
Winds: from the WNW (300 degrees) at 5 MPH (4 knots; 2.1 m/s)
Visibility: 6 or more miles (10+ km)
Ceiling: ceiling and visibility are OK
Clouds: unknown
Weather: no significant weather observed at this time